Huntington Beach, California
Current Conditions -  °F | °C
As of 7:53 PM on Monday 22 Dec 2014 (Local Time) from KSNA Reporting Station
Clear Clear  
Wind Chill: 63°   Ceiling: Unl
Heat Index: 63°   Visibility: 7mi
Dew Point: 54°   Wind: 3mph
Humidity: 72%   Direction: 220°SW
Pressure: 29.99"   Gusts: NA
Location:  33.68°N, 118°W
Report Text: KSNA 230353Z 22003KT 7SM CLR 17/12 A2999 RMK AO2 SLP154 T01720122
Loading
Personal Weather Stations






























Interactive Weather Map New forecast layout! Learn more

10-Day Weather Forecast

Advertisements
Track Severe Weather on mobile